Time;durP1;ratioP1;P1;durP2;ratioP2;P2;SDS_P1;SDS_P2;PMS_P1;PMS_P2;Temp;Humidity;BMP_temperature;BMP_pressure;BME280_temperature;BME280_humidity;BME280_pressure;Samples;Min_cycle;Max_cycle;Signal;HPM_P1;HPM_P2
2022/09/26 00:01:20;;;;;;;0.60;0.60;;;6.20;99.90;;;;;;5015249;28;20673;-68
2022/09/26 00:03:48;;;;;;;0.57;0.57;;;6.20;99.90;;;;;;5015295;28;20199;-67
2022/09/26 00:06:17;;;;;;;0.70;0.70;;;6.20;99.90;;;;;;5015408;28;20211;-68
2022/09/26 00:08:45;;;;;;;0.50;0.50;;;6.20;99.90;;;;;;5015215;28;20219;-68
2022/09/26 00:11:13;;;;;;;0.70;0.70;;;6.10;99.90;;;;;;5015307;28;20670;-68
2022/09/26 00:13:40;;;;;;;0.70;0.70;;;6.10;99.90;;;;;;5015222;28;20541;-68
2022/09/26 00:16:08;;;;;;;0.60;0.60;;;6.10;99.90;;;;;;5015244;28;20681;-67
2022/09/26 00:18:33;;;;;;;1.65;0.90;;;6.10;99.90;;;;;;5015029;28;20202;-68
2022/09/26 00:21:05;;;;;;;0.60;0.60;;;6.00;99.90;;;;;;5030299;28;20205;-68
2022/09/26 00:23:31;;;;;;;0.60;0.60;;;6.00;99.90;;;;;;5029893;28;20206;-68
2022/09/26 00:25:59;;;;;;;0.55;0.55;;;5.90;99.90;;;;;;5015000;28;20211;-68
2022/09/26 00:28:25;;;;;;;0.55;0.55;;;5.90;99.90;;;;;;5014813;28;20210;-67
2022/09/26 00:30:51;;;;;;;0.70;0.70;;;5.90;99.90;;;;;;5013207;28;20210;-67
2022/09/26 00:33:17;;;;;;;0.77;0.77;;;5.90;99.90;;;;;;5014869;28;20663;-67
2022/09/26 00:35:53;;;;;;;0.80;0.80;;;6.00;99.90;;;;;;5014664;28;20226;-67
2022/09/26 00:38:19;;;;;;;0.60;0.60;;;6.00;99.90;;;;;;5014787;28;20203;-67
2022/09/26 00:40:46;;;;;;;0.60;0.60;;;6.00;99.90;;;;;;5014866;28;20198;-68
2022/09/26 00:43:39;;;;;;;0.60;0.60;;;6.00;99.90;;;;;;5014678;28;20292;-68
2022/09/26 00:46:25;;;;;;;0.70;0.70;;;6.10;99.90;;;;;;4995000;28;20706;-68
2022/09/26 00:49:03;;;;;;;0.80;0.80;;;6.10;99.90;;;;;;5005141;28;20273;-68
2022/09/26 00:51:31;;;;;;;0.60;0.60;;;6.20;99.90;;;;;;5014346;28;20198;-68
2022/09/26 00:53:57;;;;;;;0.60;0.60;;;6.20;99.90;;;;;;5013399;28;20583;-68
2022/09/26 00:56:29;;;;;;;0.47;0.47;;;6.30;99.90;;;;;;5014247;28;20229;-67
2022/09/26 00:59:14;;;;;;;0.70;0.70;;;6.20;99.90;;;;;;5014476;28;20270;-68
2022/09/26 01:01:40;;;;;;;0.70;0.70;;;6.30;99.90;;;;;;4994440;28;20226;-68
2022/09/26 01:04:07;;;;;;;0.60;0.60;;;6.30;99.90;;;;;;5009700;28;20204;-67
2022/09/26 01:06:34;;;;;;;0.80;0.80;;;6.30;99.90;;;;;;4997439;28;20249;-67
2022/09/26 01:09:07;;;;;;;0.60;0.60;;;6.40;99.90;;;;;;5014135;28;20223;-67
2022/09/26 01:11:35;;;;;;;0.80;0.80;;;6.40;99.90;;;;;;5013951;28;20658;-68
2022/09/26 01:14:02;;;;;;;0.60;0.60;;;6.50;99.90;;;;;;5012889;28;20221;-67
2022/09/26 01:16:28;;;;;;;0.70;0.70;;;6.50;99.90;;;;;;5013885;28;20187;-67
2022/09/26 01:18:54;;;;;;;0.65;0.65;;;6.50;99.90;;;;;;5014137;28;20187;-68
2022/09/26 01:21:38;;;;;;;0.70;0.70;;;6.50;99.90;;;;;;5013951;28;20191;-68
2022/09/26 01:24:27;;;;;;;0.50;0.50;;;6.50;99.90;;;;;;5013868;28;20640;-68
2022/09/26 01:27:06;;;;;;;0.60;0.60;;;6.60;99.90;;;;;;5013684;28;20206;-67
2022/09/26 01:29:38;;;;;;;0.60;0.60;;;6.60;99.90;;;;;;5013603;28;20288;-67
2022/09/26 01:32:49;;;;;;;0.63;0.63;;;6.60;99.90;;;;;;5013878;28;20199;-67
2022/09/26 01:35:27;;;;;;;0.57;0.57;;;6.60;99.90;;;;;;5013704;28;20560;-68
2022/09/26 01:38:01;;;;;;;0.50;0.50;;;6.70;99.90;;;;;;5013651;28;20198;-68
2022/09/26 01:41:01;;;;;;;0.60;0.60;;;6.70;99.90;;;;;;5013510;28;20191;-68
2022/09/26 01:43:39;;;;;;;0.80;0.80;;;6.70;99.90;;;;;;5013294;28;20203;-68
2022/09/26 01:46:42;;;;;;;0.70;0.70;;;6.70;99.90;;;;;;5009337;28;20531;-68
2022/09/26 01:49:17;;;;;;;0.55;0.55;;;6.70;99.90;;;;;;4993678;28;20353;-68
2022/09/26 01:52:02;;;;;;;0.70;0.70;;;6.70;99.90;;;;;;4993848;28;20537;-68
2022/09/26 01:54:37;;;;;;;0.50;0.50;;;6.70;99.90;;;;;;4993712;28;20192;-68
2022/09/26 01:57:07;;;;;;;0.60;0.60;;;6.60;99.90;;;;;;4993665;28;20195;-68
2022/09/26 01:59:42;;;;;;;0.70;0.70;;;6.70;99.90;;;;;;4993597;28;20195;-68
2022/09/26 02:02:20;;;;;;;0.80;0.80;;;6.70;99.90;;;;;;4992979;28;20651;-68
2022/09/26 02:04:51;;;;;;;0.63;0.63;;;6.70;99.90;;;;;;5011974;28;20202;-68
2022/09/26 02:07:26;;;;;;;0.60;0.60;;;6.80;99.90;;;;;;5013211;28;20201;-68
2022/09/26 02:10:01;;;;;;;0.70;0.70;;;6.80;99.90;;;;;;5013096;28;20194;-68
2022/09/26 02:12:32;;;;;;;0.80;0.80;;;6.80;99.90;;;;;;5012964;28;20194;-68
2022/09/26 02:15:04;;;;;;;0.70;0.70;;;6.90;99.90;;;;;;5028233;28;20249;-68
2022/09/26 02:17:37;;;;;;;0.52;0.52;;;6.90;99.90;;;;;;5012259;28;20624;-68
2022/09/26 02:20:27;;;;;;;0.60;0.60;;;7.00;99.90;;;;;;5011688;28;20199;-68
2022/09/26 02:22:54;;;;;;;0.60;0.60;;;7.00;99.90;;;;;;5010707;28;20632;-68
2022/09/26 02:25:20;;;;;;;0.70;0.70;;;7.00;99.90;;;;;;5012728;28;20222;-67
2022/09/26 02:27:48;;;;;;;0.50;0.50;;;7.00;99.90;;;;;;5012787;28;20554;-68
2022/09/26 02:30:14;;;;;;;0.70;0.70;;;7.10;99.90;;;;;;5028371;28;20199;-68
2022/09/26 02:32:40;;;;;;;0.90;0.90;;;7.10;99.90;;;;;;5012693;28;20209;-68
2022/09/26 02:37:50;;;;;;;1.35;1.25;;;7.20;99.90;;;;;;5012805;28;20286;-68
2022/09/26 02:40:18;;;;;;;1.25;1.15;;;7.20;99.90;;;;;;5012766;28;20218;-68
2022/09/26 02:42:53;;;;;;;0.52;0.52;;;7.20;99.90;;;;;;5012570;28;20195;-68
2022/09/26 02:45:25;;;;;;;0.70;0.70;;;7.20;99.90;;;;;;4998772;28;20202;-68
2022/09/26 02:47:53;;;;;;;0.70;0.70;;;7.20;99.90;;;;;;4993059;28;20207;-66
2022/09/26 02:50:40;;;;;;;0.70;0.70;;;7.20;99.90;;;;;;4993016;28;20191;-68
2022/09/26 02:53:35;;;;;;;1.00;1.00;;;7.20;99.90;;;;;;5004724;28;20198;-68
2022/09/26 02:56:26;;;;;;;0.63;0.63;;;7.30;99.90;;;;;;5012628;28;20202;-68
2022/09/26 02:59:20;;;;;;;0.60;0.60;;;7.30;99.90;;;;;;5012561;28;20228;-68
2022/09/26 03:02:03;;;;;;;0.68;0.68;;;7.30;99.90;;;;;;5011740;28;20261;-68
2022/09/26 03:04:43;;;;;;;0.70;0.70;;;7.40;99.90;;;;;;5027389;28;20310;-68
2022/09/26 03:07:13;;;;;;;0.60;0.60;;;7.40;99.90;;;;;;5012167;28;20666;-68
2022/09/26 03:09:41;;;;;;;0.57;0.57;;;7.40;99.90;;;;;;5012306;28;20686;-68
2022/09/26 03:12:09;;;;;;;0.47;0.47;;;7.40;99.90;;;;;;5012392;28;20219;-68
2022/09/26 03:14:36;;;;;;;0.60;0.60;;;7.40;99.90;;;;;;5012294;28;20191;-68
2022/09/26 03:17:03;;;;;;;0.60;0.60;;;7.40;99.90;;;;;;5013554;28;20195;-68
2022/09/26 03:19:45;;;;;;;0.50;0.50;;;7.40;99.90;;;;;;5029254;28;20256;-68
2022/09/26 03:22:11;;;;;;;0.70;0.70;;;7.40;99.90;;;;;;5016249;28;20522;-68
2022/09/26 03:24:41;;;;;;;0.60;0.60;;;7.50;99.90;;;;;;5030925;28;20238;-68
2022/09/26 03:27:07;;;;;;;0.63;0.63;;;7.40;99.90;;;;;;5016045;28;20195;-69
2022/09/26 03:29:32;;;;;;;0.75;0.75;;;7.40;99.90;;;;;;5015650;28;20223;-68
2022/09/26 03:31:59;;;;;;;1.52;1.02;;;7.50;99.90;;;;;;5047749;28;20314;-68
2022/09/26 03:34:26;;;;;;;0.65;0.65;;;7.50;99.90;;;;;;5015744;28;20556;-68
2022/09/26 03:36:52;;;;;;;0.70;0.70;;;7.50;99.90;;;;;;5015783;28;20194;-68
2022/09/26 03:39:18;;;;;;;0.85;0.85;;;7.50;99.90;;;;;;5014506;28;20225;-68
2022/09/26 03:41:44;;;;;;;0.90;0.90;;;7.50;99.90;;;;;;5029372;28;20674;-68
2022/09/26 03:44:11;;;;;;;0.60;0.60;;;7.60;99.90;;;;;;5011293;28;20582;-68
2022/09/26 03:46:37;;;;;;;0.80;0.80;;;7.60;99.90;;;;;;5010920;28;20208;-68
2022/09/26 03:49:03;;;;;;;0.60;0.60;;;7.60;99.90;;;;;;4995890;28;20261;-68
2022/09/26 03:51:28;;;;;;;0.60;0.60;;;7.50;99.90;;;;;;4995808;28;20198;-68
2022/09/26 03:53:54;;;;;;;0.60;0.60;;;7.60;99.90;;;;;;4995963;28;20250;-68
2022/09/26 03:56:20;;;;;;;0.63;0.63;;;7.60;99.90;;;;;;5007061;28;20210;-68
2022/09/26 03:58:47;;;;;;;0.60;0.60;;;7.60;99.90;;;;;;5015458;28;20558;-68
2022/09/26 04:01:18;;;;;;;0.60;0.60;;;7.60;99.90;;;;;;5015366;28;20218;-68
2022/09/26 04:03:46;;;;;;;0.60;0.60;;;7.60;99.90;;;;;;5014049;28;20234;-68
2022/09/26 04:06:16;;;;;;;0.65;0.65;;;7.60;99.90;;;;;;5015269;28;20626;-68
2022/09/26 04:08:42;;;;;;;0.60;0.60;;;7.60;99.90;;;;;;5031551;28;20301;-69
2022/09/26 04:11:14;;;;;;;0.52;0.52;;;7.60;99.90;;;;;;5034959;28;20225;-68
2022/09/26 04:13:42;;;;;;;1.63;1.15;;;7.70;99.90;;;;;;5029857;28;20210;-68
2022/09/26 04:16:09;;;;;;;0.60;0.60;;;7.70;99.90;;;;;;5013559;28;20195;-68
2022/09/26 04:18:34;;;;;;;0.60;0.60;;;7.70;99.90;;;;;;5014943;28;20203;-68
2022/09/26 04:21:09;;;;;;;0.60;0.60;;;7.70;99.90;;;;;;5014970;28;20206;-68
2022/09/26 04:23:36;;;;;;;2.28;1.05;;;7.70;99.90;;;;;;5015060;28;20345;-68
2022/09/26 04:26:04;;;;;;;0.60;0.60;;;7.70;99.90;;;;;;5014937;28;20393;-68
2022/09/26 04:28:30;;;;;;;0.65;0.65;;;7.80;99.90;;;;;;5029698;28;20221;-68
2022/09/26 04:31:00;;;;;;;0.60;0.60;;;7.70;99.90;;;;;;5014862;28;20191;-68
2022/09/26 04:33:27;;;;;;;0.90;0.90;;;7.80;99.90;;;;;;5014669;28;20241;-68
2022/09/26 04:35:53;;;;;;;1.90;1.10;;;7.80;99.90;;;;;;5014722;28;20198;-68
2022/09/26 04:38:19;;;;;;;0.60;0.60;;;7.70;99.90;;;;;;5014621;28;20285;-69
2022/09/26 04:40:44;;;;;;;0.60;0.60;;;7.70;99.90;;;;;;5014546;28;20578;-68
2022/09/26 04:43:11;;;;;;;0.70;0.70;;;7.80;99.90;;;;;;5029108;28;20209;-68
2022/09/26 04:45:41;;;;;;;0.60;0.60;;;7.80;99.90;;;;;;5011376;28;20658;-68
2022/09/26 04:48:09;;;;;;;0.70;0.70;;;7.80;99.90;;;;;;5014406;28;20673;-68
2022/09/26 04:50:35;;;;;;;0.60;0.60;;;7.80;99.90;;;;;;5014281;28;20190;-68
2022/09/26 04:53:01;;;;;;;0.60;0.60;;;7.90;99.90;;;;;;5014348;28;20207;-68
2022/09/26 04:55:27;;;;;;;0.60;0.60;;;7.90;99.90;;;;;;5014194;28;20531;-68
2022/09/26 04:57:52;;;;;;;0.50;0.50;;;7.90;99.90;;;;;;5014319;28;20570;-68
2022/09/26 05:00:18;;;;;;;0.60;0.60;;;7.90;99.90;;;;;;5014195;28;20599;-68
2022/09/26 05:02:47;;;;;;;0.57;0.57;;;7.80;99.90;;;;;;5014057;28;20202;-68
2022/09/26 05:05:14;;;;;;;0.55;0.55;;;7.90;99.90;;;;;;5014222;28;20195;-68
2022/09/26 05:07:41;;;;;;;0.60;0.60;;;7.90;99.90;;;;;;5013930;28;20239;-68
2022/09/26 05:10:09;;;;;;;0.70;0.70;;;7.90;99.90;;;;;;5014039;28;20198;-68
2022/09/26 05:12:41;;;;;;;0.50;0.50;;;7.90;99.90;;;;;;4994382;28;20383;-68
2022/09/26 05:15:08;;;;;;;4.03;1.20;;;7.90;99.90;;;;;;4994502;28;20651;-68
2022/09/26 05:17:37;;;;;;;0.60;0.60;;;7.90;99.90;;;;;;4994309;28;20191;-68
2022/09/26 05:20:08;;;;;;;0.70;0.70;;;7.80;99.90;;;;;;4994407;28;20703;-69
2022/09/26 05:22:34;;;;;;;0.90;0.90;;;7.90;99.90;;;;;;4994370;28;20192;-68
2022/09/26 05:27:45;;;;;;;0.65;0.65;;;7.90;99.90;;;;;;4994415;28;20203;-69
2022/09/26 05:30:11;;;;;;;0.60;0.60;;;7.90;99.90;;;;;;4994249;28;20568;-69
2022/09/26 05:32:38;;;;;;;0.60;0.60;;;7.90;99.90;;;;;;4994147;28;20188;-68
2022/09/26 05:35:05;;;;;;;0.70;0.70;;;7.90;99.90;;;;;;4994085;28;20199;-69
2022/09/26 05:37:30;;;;;;;0.73;0.73;;;8.00;99.90;;;;;;4993682;28;20196;-68
2022/09/26 05:42:40;;;;;;;0.60;0.60;;;8.00;99.90;;;;;;4993658;28;20222;-69
2022/09/26 05:45:07;;;;;;;0.60;0.60;;;8.00;99.90;;;;;;4993615;28;20203;-69
2022/09/26 05:47:35;;;;;;;0.60;0.60;;;8.10;99.90;;;;;;4994727;28;20198;-69
2022/09/26 05:50:07;;;;;;;0.60;0.60;;;8.10;99.90;;;;;;5013506;28;20194;-69
2022/09/26 05:52:33;;;;;;;0.60;0.60;;;8.10;99.90;;;;;;5013297;28;20187;-68
2022/09/26 05:54:59;;;;;;;0.55;0.55;;;8.10;99.90;;;;;;5013457;28;20564;-68
2022/09/26 05:57:25;;;;;;;0.70;0.70;;;8.10;99.90;;;;;;5013300;28;20283;-69
2022/09/26 05:59:51;;;;;;;0.60;0.60;;;8.10;99.90;;;;;;5013382;28;20202;-68
2022/09/26 06:02:16;;;;;;;0.68;0.68;;;8.10;99.90;;;;;;5012033;28;20199;-68
2022/09/26 06:04:42;;;;;;;0.60;0.60;;;8.10;99.90;;;;;;5013065;28;20281;-68
2022/09/26 06:07:08;;;;;;;0.60;0.60;;;8.10;99.90;;;;;;5013010;28;20274;-69
2022/09/26 06:09:33;;;;;;;0.63;0.63;;;8.10;99.90;;;;;;5012990;28;20207;-68
2022/09/26 06:11:59;;;;;;;0.70;0.70;;;8.20;99.90;;;;;;5013262;28;20659;-69
2022/09/26 06:14:25;;;;;;;0.50;0.50;;;8.20;99.90;;;;;;5011709;28;20244;-68
2022/09/26 06:16:51;;;;;;;0.80;0.80;;;8.30;99.90;;;;;;5013160;28;20218;-69
2022/09/26 06:19:17;;;;;;;0.60;0.60;;;8.30;99.90;;;;;;5013116;28;20570;-69
2022/09/26 06:21:43;;;;;;;0.60;0.60;;;8.30;99.90;;;;;;5013326;28;20198;-68
2022/09/26 06:24:09;;;;;;;0.60;0.60;;;8.30;99.90;;;;;;5012776;28;20752;-68
2022/09/26 06:26:35;;;;;;;0.55;0.55;;;8.40;99.90;;;;;;5044385;28;20298;-68
2022/09/26 06:29:01;;;;;;;0.63;0.63;;;8.40;99.90;;;;;;5028192;28;20666;-68
2022/09/26 06:31:27;;;;;;;0.63;0.63;;;8.50;99.90;;;;;;5012829;28;20198;-69
2022/09/26 06:33:54;;;;;;;0.60;0.60;;;8.50;99.90;;;;;;5013011;28;20658;-69
2022/09/26 06:36:21;;;;;;;0.60;0.60;;;8.60;99.90;;;;;;5012737;28;20253;-69
2022/09/26 06:38:46;;;;;;;0.70;0.70;;;8.60;99.90;;;;;;5012721;28;20207;-69
2022/09/26 06:41:15;;;;;;;0.60;0.60;;;8.70;99.90;;;;;;5044529;28;20261;-69
2022/09/26 06:43:44;;;;;;;1.42;1.33;;;8.70;99.90;;;;;;5043915;28;20204;-69
2022/09/26 06:46:11;;;;;;;0.70;0.70;;;8.80;99.90;;;;;;5012809;28;20201;-69
2022/09/26 06:48:37;;;;;;;0.60;0.60;;;8.80;99.90;;;;;;5012569;28;20620;-69
2022/09/26 06:51:03;;;;;;;0.70;0.70;;;8.90;99.90;;;;;;5029055;28;20199;-69
2022/09/26 06:53:30;;;;;;;0.85;0.85;;;8.90;99.90;;;;;;5016696;28;20201;-69
2022/09/26 06:55:58;;;;;;;0.63;0.63;;;8.90;99.90;;;;;;5015448;28;20242;-69
2022/09/26 06:58:23;;;;;;;1.08;1.05;;;9.00;99.90;;;;;;5015289;28;20206;-69
2022/09/26 07:00:49;;;;;;;0.60;0.60;;;9.00;99.90;;;;;;5031688;28;20199;-68
2022/09/26 07:03:15;;;;;;;0.70;0.70;;;9.00;99.90;;;;;;5014786;28;20203;-68
2022/09/26 07:05:41;;;;;;;0.60;0.60;;;9.10;99.90;;;;;;5016241;28;20195;-68
2022/09/26 07:08:07;;;;;;;0.52;0.52;;;9.10;99.90;;;;;;5016526;28;20269;-69
2022/09/26 07:10:34;;;;;;;1.27;0.80;;;9.10;99.90;;;;;;5016263;28;20199;-69
2022/09/26 07:13:02;;;;;;;0.70;0.70;;;9.20;99.90;;;;;;5016525;28;20211;-69
2022/09/26 07:15:32;;;;;;;0.82;0.82;;;9.30;99.90;;;;;;5016228;28;20273;-68
2022/09/26 07:18:01;;;;;;;0.60;0.60;;;9.30;99.90;;;;;;5015101;28;20245;-69
2022/09/26 07:20:30;;;;;;;0.60;0.60;;;9.40;99.90;;;;;;5016137;28;20244;-69
2022/09/26 07:22:59;;;;;;;1.55;1.45;;;9.40;99.90;;;;;;5016655;28;20229;-69
2022/09/26 07:25:24;;;;;;;2.15;0.90;;;9.50;99.90;;;;;;5016096;28;20246;-68
2022/09/26 07:27:51;;;;;;;0.50;0.50;;;9.50;99.90;;;;;;5016023;28;20203;-69
2022/09/26 07:30:18;;;;;;;0.52;0.52;;;9.60;99.90;;;;;;5031278;28;20195;-69
2022/09/26 07:32:46;;;;;;;0.70;0.70;;;9.60;99.90;;;;;;5015889;28;20562;-69
2022/09/26 07:35:13;;;;;;;0.60;0.60;;;9.70;99.90;;;;;;5015858;28;20518;-69
2022/09/26 07:37:39;;;;;;;0.60;0.60;;;9.60;99.90;;;;;;5015747;28;20310;-69
2022/09/26 07:40:05;;;;;;;1.10;0.90;;;9.60;99.90;;;;;;5015804;28;20429;-68
2022/09/26 07:42:31;;;;;;;0.65;0.65;;;9.70;99.90;;;;;;5015720;28;20557;-69
2022/09/26 07:44:57;;;;;;;0.70;0.70;;;9.80;99.90;;;;;;5015606;28;20198;-68
2022/09/26 07:50:10;;;;;;;0.70;0.70;;;9.90;99.90;;;;;;5015766;28;20198;-68
2022/09/26 07:52:36;;;;;;;0.60;0.60;;;10.00;99.90;;;;;;5015526;28;20183;-68
2022/09/26 07:55:02;;;;;;;0.70;0.70;;;10.00;99.90;;;;;;5015599;28;20285;-69
2022/09/26 07:57:31;;;;;;;0.60;0.60;;;10.10;99.90;;;;;;5015421;28;20195;-68
2022/09/26 07:59:58;;;;;;;0.50;0.50;;;10.10;99.90;;;;;;5015431;28;20190;-68
2022/09/26 08:02:30;;;;;;;0.50;0.50;;;10.10;99.90;;;;;;5014573;28;20285;-68
2022/09/26 08:04:56;;;;;;;0.60;0.60;;;10.00;99.90;;;;;;5015487;28;20202;-68
2022/09/26 08:07:23;;;;;;;0.70;0.70;;;10.00;99.90;;;;;;5013916;28;20207;-68
2022/09/26 08:09:52;;;;;;;0.60;0.60;;;10.10;99.90;;;;;;5015385;28;20605;-68
2022/09/26 08:12:18;;;;;;;0.73;0.73;;;10.10;99.90;;;;;;5015394;28;20685;-68
2022/09/26 08:14:53;;;;;;;0.50;0.50;;;10.20;99.90;;;;;;5015156;28;20203;-68
2022/09/26 08:17:20;;;;;;;0.50;0.50;;;10.20;99.90;;;;;;5047001;28;20194;-68
2022/09/26 08:19:46;;;;;;;1.13;1.00;;;10.40;99.90;;;;;;5015139;28;20608;-68
2022/09/26 08:22:11;;;;;;;0.50;0.50;;;10.50;99.90;;;;;;5046861;28;20207;-69
2022/09/26 08:24:37;;;;;;;0.82;0.82;;;10.60;99.90;;;;;;5014683;28;20231;-68
2022/09/26 08:27:07;;;;;;;4.00;1.83;;;10.70;99.90;;;;;;5016509;28;20230;-71
2022/09/26 08:29:33;;;;;;;1.85;1.40;;;10.70;99.90;;;;;;5009836;28;20261;-70
2022/09/26 08:32:02;;;;;;;6.70;4.10;;;10.80;99.90;;;;;;4995430;28;20669;-70
2022/09/26 08:34:28;;;;;;;6.40;2.92;;;10.80;99.90;;;;;;4995313;28;20191;-70
2022/09/26 08:36:53;;;;;;;0.70;0.70;;;10.80;99.90;;;;;;5000918;28;20214;-71
2022/09/26 08:39:22;;;;;;;0.50;0.50;;;10.70;99.90;;;;;;5014666;28;20199;-70
2022/09/26 08:42:13;;;;;;;0.60;0.60;;;10.50;99.90;;;;;;5014625;28;20286;-70
2022/09/26 08:46:28;;;;;;;1.08;0.90;;;10.50;99.90;;;;;;5014204;28;20816;-70
2022/09/26 08:48:12;;;;;;;0.68;0.68;;;10.40;99.90;;;;;;5014501;28;20210;-69
2022/09/26 08:50:40;;;;;;;0.52;0.52;;;10.50;99.90;;;;;;5014440;28;20676;-69
2022/09/26 08:53:17;;;;;;;0.75;0.75;;;10.60;99.90;;;;;;5014538;28;20198;-70
2022/09/26 08:55:46;;;;;;;1.17;1.08;;;10.60;99.90;;;;;;5014082;28;20186;-70
2022/09/26 08:58:39;;;;;;;0.70;0.70;;;10.80;99.90;;;;;;5014481;28;20191;-70
2022/09/26 09:01:14;;;;;;;0.50;0.50;;;10.70;99.90;;;;;;5029529;28;20564;-70
2022/09/26 09:03:54;;;;;;;0.68;0.68;;;10.80;99.90;;;;;;5014247;28;20539;-70
2022/09/26 09:06:20;;;;;;;0.50;0.50;;;10.80;99.90;;;;;;5014148;28;20253;-70
2022/09/26 09:09:21;;;;;;;0.90;0.90;;;10.90;99.90;;;;;;5016002;28;20210;-70
2022/09/26 09:11:50;;;;;;;0.60;0.60;;;10.90;99.90;;;;;;4992448;28;20234;-70
2022/09/26 09:14:39;;;;;;;0.50;0.50;;;11.10;99.90;;;;;;4991605;28;20680;-70
2022/09/26 09:17:20;;;;;;;0.60;0.60;;;11.30;99.90;;;;;;4992429;28;20215;-70
2022/09/26 09:20:01;;;;;;;2.67;1.55;;;11.40;99.90;;;;;;4992295;28;20208;-70
2022/09/26 09:22:45;;;;;;;0.77;0.77;;;11.50;99.90;;;;;;4992116;28;20203;-70
2022/09/26 09:25:46;;;;;;;0.60;0.60;;;11.50;99.90;;;;;;4992037;28;20227;-70
2022/09/26 09:28:31;;;;;;;2.65;1.15;;;11.70;99.90;;;;;;4992098;28;20265;-70
2022/09/26 09:31:00;;;;;;;0.50;0.50;;;11.80;99.90;;;;;;4991992;28;20285;-70
2022/09/26 09:33:48;;;;;;;0.77;0.73;;;11.90;99.90;;;;;;4991804;28;20559;-70
2022/09/26 09:36:20;;;;;;;0.50;0.50;;;11.90;99.90;;;;;;4992018;28;20203;-70
2022/09/26 09:38:48;;;;;;;0.50;0.50;;;12.00;99.90;;;;;;4992023;28;20611;-70
2022/09/26 09:41:21;;;;;;;0.52;0.52;;;12.00;99.90;;;;;;4975547;28;20204;-70
2022/09/26 09:43:50;;;;;;;0.70;0.70;;;12.00;99.90;;;;;;4991632;28;20229;-69
2022/09/26 09:46:27;;;;;;;1.05;1.00;;;11.80;99.90;;;;;;5007204;28;20670;-70
2022/09/26 09:49:01;;;;;;;0.50;0.50;;;11.70;99.90;;;;;;5013506;28;20252;-69
2022/09/26 09:51:46;;;;;;;0.60;0.60;;;11.50;99.90;;;;;;5013075;28;20538;-70
2022/09/26 09:54:33;;;;;;;0.60;0.60;;;11.60;99.90;;;;;;5013463;28;20187;-70
2022/09/26 09:57:17;;;;;;;0.50;0.50;;;11.60;99.90;;;;;;5013412;28;20187;-70
2022/09/26 09:59:45;;;;;;;0.50;0.50;;;11.70;99.90;;;;;;5013138;28;20203;-69
2022/09/26 10:02:39;;;;;;;6.60;2.40;;;11.70;99.90;;;;;;5013260;28;20186;-69
2022/09/26 10:05:24;;;;;;;0.50;0.50;;;11.80;99.90;;;;;;5003098;28;20206;-69
2022/09/26 10:07:59;;;;;;;0.50;0.50;;;11.70;99.90;;;;;;5013215;28;20194;-70
2022/09/26 10:10:48;;;;;;;0.65;0.65;;;11.80;99.90;;;;;;5013038;28;20186;-70
2022/09/26 10:13:16;;;;;;;0.50;0.50;;;11.70;99.90;;;;;;5013199;28;20194;-70
2022/09/26 10:15:56;;;;;;;0.50;0.50;;;11.70;99.90;;;;;;5011698;28;20202;-70
2022/09/26 10:18:22;;;;;;;0.60;0.60;;;11.70;99.90;;;;;;5013007;28;20761;-70
2022/09/26 10:21:05;;;;;;;0.60;0.60;;;11.60;99.90;;;;;;5012968;28;20282;-70
2022/09/26 10:23:41;;;;;;;0.50;0.50;;;11.50;99.90;;;;;;5027934;28;20600;-68
2022/09/26 10:26:09;;;;;;;0.57;0.57;;;11.30;99.90;;;;;;5012649;28;20191;-69
2022/09/26 10:28:46;;;;;;;0.60;0.60;;;11.20;99.90;;;;;;5012895;28;20206;-69
2022/09/26 10:31:42;;;;;;;0.50;0.50;;;11.00;99.90;;;;;;4993420;28;20191;-69
2022/09/26 10:34:23;;;;;;;0.77;0.77;;;10.90;99.90;;;;;;4993336;28;20192;-70
2022/09/26 10:36:49;;;;;;;0.50;0.50;;;10.80;99.90;;;;;;4993266;28;20273;-69
2022/09/26 10:42:03;;;;;;;0.70;0.70;;;10.80;99.90;;;;;;4993323;28;20253;-70
2022/09/26 10:44:33;;;;;;;0.60;0.60;;;11.00;99.90;;;;;;4999561;28;20226;-70
2022/09/26 10:47:07;;;;;;;0.93;0.85;;;11.20;99.90;;;;;;5013184;28;20195;-70
2022/09/26 10:49:48;;;;;;;0.52;0.52;;;11.20;99.90;;;;;;5012308;28;20211;-70
2022/09/26 10:52:26;;;;;;;0.50;0.50;;;11.30;99.90;;;;;;5012783;28;20222;-70
2022/09/26 10:55:03;;;;;;;0.60;0.60;;;11.30;99.90;;;;;;5012878;28;20277;-70
2022/09/26 10:57:47;;;;;;;2.85;2.65;;;11.30;99.90;;;;;;5012600;28;20229;-70
2022/09/26 11:00:38;;;;;;;2.25;2.05;;;11.20;99.90;;;;;;5012723;28;20195;-70
2022/09/26 11:03:07;;;;;;;0.95;0.88;;;11.20;99.90;;;;;;5012755;28;20237;-70
2022/09/26 11:05:58;;;;;;;0.60;0.60;;;11.40;99.90;;;;;;5012443;28;20712;-70
2022/09/26 11:08:30;;;;;;;0.60;0.60;;;11.50;99.90;;;;;;5012394;28;20269;-70
2022/09/26 11:10:58;;;;;;;0.60;0.60;;;11.80;99.90;;;;;;5012623;28;20245;-70
2022/09/26 11:13:27;;;;;;;0.50;0.50;;;11.80;99.90;;;;;;5012371;28;20253;-70
2022/09/26 11:16:00;;;;;;;0.70;0.70;;;11.80;99.90;;;;;;5012597;28;20234;-70
2022/09/26 11:18:44;;;;;;;0.73;0.73;;;11.90;99.90;;;;;;5006520;28;20541;-70
2022/09/26 11:21:22;;;;;;;0.50;0.50;;;11.90;99.90;;;;;;4992856;28;20202;-70
2022/09/26 11:24:03;;;;;;;0.50;0.50;;;11.80;99.90;;;;;;4992619;28;20262;-70
2022/09/26 11:26:54;;;;;;;0.45;0.45;;;11.70;99.90;;;;;;5005298;28;20269;-69
2022/09/26 11:29:58;;;;;;;0.82;0.82;;;11.70;99.90;;;;;;5012208;28;20207;-69
2022/09/26 11:32:32;;;;;;;0.50;0.50;;;11.70;99.90;;;;;;5005820;28;20229;-69
2022/09/26 11:35:02;;;;;;;0.40;0.40;;;11.60;99.90;;;;;;5012469;28;20650;-70
2022/09/26 11:37:57;;;;;;;0.60;0.60;;;11.70;99.90;;;;;;5010901;28;20670;-70
2022/09/26 11:41:00;;;;;;;0.60;0.60;;;11.70;99.90;;;;;;5016044;28;20582;-69
2022/09/26 11:43:50;;;;;;;0.60;0.60;;;11.60;99.90;;;;;;5015735;28;20587;-69
2022/09/26 11:46:38;;;;;;;0.50;0.50;;;11.50;99.90;;;;;;5015171;28;20191;-70
2022/09/26 11:49:19;;;;;;;0.60;0.60;;;11.50;99.90;;;;;;5015774;28;20252;-69
2022/09/26 11:52:22;;;;;;;0.60;0.60;;;11.50;99.90;;;;;;5047421;28;20195;-69
2022/09/26 11:54:47;;;;;;;0.60;0.60;;;11.40;99.90;;;;;;5015550;28;20190;-69
2022/09/26 11:57:44;;;;;;;0.50;0.50;;;11.40;99.90;;;;;;5015571;28;20592;-70
2022/09/26 12:00:26;;;;;;;0.50;0.50;;;11.50;99.90;;;;;;5015646;28;20253;-69
2022/09/26 12:03:29;;;;;;;0.57;0.57;;;11.50;99.90;;;;;;5015814;28;20191;-69
2022/09/26 12:06:24;;;;;;;0.55;0.55;;;11.40;99.90;;;;;;5030575;28;20191;-69
2022/09/26 12:09:17;;;;;;;0.60;0.60;;;11.40;99.90;;;;;;5015326;28;20571;-69
2022/09/26 12:11:45;;;;;;;0.60;0.60;;;11.30;99.90;;;;;;5015407;28;20207;-68
2022/09/26 12:14:11;;;;;;;0.50;0.50;;;11.10;99.90;;;;;;5046574;28;20231;-68
2022/09/26 12:16:54;;;;;;;0.60;0.60;;;11.10;99.90;;;;;;4995496;28;20226;-69
2022/09/26 12:19:32;;;;;;;0.60;0.60;;;11.00;99.90;;;;;;4994143;28;20286;-69
2022/09/26 12:22:30;;;;;;;0.50;0.50;;;11.00;99.90;;;;;;5001864;28;20245;-69
2022/09/26 12:25:06;;;;;;;0.60;0.60;;;10.90;99.90;;;;;;5014868;28;20244;-69
2022/09/26 12:27:37;;;;;;;0.63;0.63;;;10.90;99.90;;;;;;5014845;28;20186;-68
2022/09/26 12:30:05;;;;;;;0.60;0.60;;;11.00;99.90;;;;;;5014992;28;20365;-69
2022/09/26 12:33:09;;;;;;;0.57;0.57;;;11.00;99.90;;;;;;5014750;28;20190;-69
2022/09/26 12:35:44;;;;;;;0.60;0.60;;;11.10;99.90;;;;;;5012464;28;20554;-68
2022/09/26 12:39:06;;;;;;;0.60;0.60;;;11.00;99.90;;;;;;5014897;28;20187;-68
2022/09/26 12:41:53;;;;;;;0.57;0.57;;;11.00;99.90;;;;;;4973223;28;20694;-68
2022/09/26 12:44:39;;;;;;;0.73;0.73;;;11.10;99.90;;;;;;4967889;28;20251;-68
2022/09/26 12:47:17;;;;;;;0.60;0.60;;;11.20;99.90;;;;;;4985065;28;20682;-69
2022/09/26 12:49:48;;;;;;;0.50;0.50;;;11.30;99.90;;;;;;5026135;28;20549;-68
2022/09/26 12:52:34;;;;;;;0.60;0.60;;;11.40;99.90;;;;;;4994947;28;20196;-69
2022/09/26 12:55:23;;;;;;;0.52;0.52;;;11.40;99.90;;;;;;4994930;28;20227;-69
2022/09/26 12:58:01;;;;;;;0.70;0.70;;;11.30;99.90;;;;;;4994978;28;20188;-68
2022/09/26 13:00:37;;;;;;;0.50;0.50;;;11.30;99.90;;;;;;5026151;28;20195;-69
2022/09/26 13:03:21;;;;;;;0.63;0.63;;;11.20;99.90;;;;;;4994976;28;20198;-69
2022/09/26 13:06:13;;;;;;;0.50;0.50;;;11.30;99.90;;;;;;4994614;28;20203;-68
2022/09/26 13:09:00;;;;;;;0.60;0.60;;;11.20;99.90;;;;;;4993740;28;20748;-69
2022/09/26 13:11:40;;;;;;;0.50;0.50;;;11.30;99.90;;;;;;5002685;28;20187;-69
2022/09/26 13:14:25;;;;;;;0.50;0.50;;;11.40;99.90;;;;;;5014037;28;20187;-69
2022/09/26 13:16:52;;;;;;;0.50;0.50;;;11.60;99.90;;;;;;5014158;28;20183;-69
2022/09/26 13:19:36;;;;;;;0.57;0.57;;;11.60;99.90;;;;;;5013750;28;20272;-69
2022/09/26 13:22:36;;;;;;;0.50;0.50;;;11.70;99.90;;;;;;5029570;28;20209;-69
2022/09/26 13:25:17;;;;;;;0.57;0.57;;;11.70;99.90;;;;;;5013828;28;20296;-69
2022/09/26 13:27:57;;;;;;;0.68;0.68;;;11.80;99.90;;;;;;5012510;28;20205;-69
2022/09/26 13:30:34;;;;;;;0.63;0.63;;;11.90;99.90;;;;;;5013740;28;20206;-69
2022/09/26 13:33:21;;;;;;;0.55;0.55;;;11.90;99.90;;;;;;5013847;28;20190;-69
2022/09/26 13:35:50;;;;;;;0.50;0.50;;;11.80;99.90;;;;;;5028817;28;20225;-68
2022/09/26 13:38:38;;;;;;;0.50;0.50;;;11.80;99.90;;;;;;5011889;28;20202;-69
2022/09/26 13:41:25;;;;;;;0.50;0.50;;;11.70;99.90;;;;;;5045520;28;20207;-68